sensor_id;sensor_type;location;lat;lon;timestamp;P1;durP1;ratioP1;P2;durP2;ratioP2
28714;SDS011;15886;49.170;14.572;2022-12-18T00:01:49;85.20;;;32.97;;
28714;SDS011;15886;49.170;14.572;2022-12-18T00:04:20;98.70;;;36.83;;
28714;SDS011;15886;49.170;14.572;2022-12-18T00:06:48;89.70;;;34.45;;
28714;SDS011;15886;49.170;14.572;2022-12-18T00:09:17;63.95;;;28.75;;
28714;SDS011;15886;49.170;14.572;2022-12-18T00:11:45;65.68;;;27.88;;
28714;SDS011;15886;49.170;14.572;2022-12-18T00:14:14;63.30;;;27.92;;
28714;SDS011;15886;49.170;14.572;2022-12-18T00:16:45;58.25;;;25.90;;
28714;SDS011;15886;49.170;14.572;2022-12-18T00:19:14;55.40;;;24.30;;
28714;SDS011;15886;49.170;14.572;2022-12-18T00:21:42;55.38;;;23.70;;
28714;SDS011;15886;49.170;14.572;2022-12-18T00:24:11;52.70;;;25.35;;
28714;SDS011;15886;49.170;14.572;2022-12-18T00:26:39;59.92;;;26.20;;
28714;SDS011;15886;49.170;14.572;2022-12-18T00:29:10;71.22;;;30.98;;
28714;SDS011;15886;49.170;14.572;2022-12-18T00:31:42;75.47;;;31.58;;
28714;SDS011;15886;49.170;14.572;2022-12-18T00:34:11;91.07;;;35.92;;
28714;SDS011;15886;49.170;14.572;2022-12-18T00:36:40;97.78;;;38.58;;
28714;SDS011;15886;49.170;14.572;2022-12-18T00:39:09;91.57;;;36.08;;
28714;SDS011;15886;49.170;14.572;2022-12-18T00:41:39;90.85;;;37.53;;
28714;SDS011;15886;49.170;14.572;2022-12-18T00:44:26;102.43;;;39.63;;
28714;SDS011;15886;49.170;14.572;2022-12-18T00:46:54;110.65;;;38.67;;
28714;SDS011;15886;49.170;14.572;2022-12-18T00:49:23;107.72;;;40.78;;
28714;SDS011;15886;49.170;14.572;2022-12-18T00:51:51;113.20;;;46.00;;
28714;SDS011;15886;49.170;14.572;2022-12-18T00:54:19;98.70;;;38.40;;
28714;SDS011;15886;49.170;14.572;2022-12-18T00:56:47;115.78;;;41.13;;
28714;SDS011;15886;49.170;14.572;2022-12-18T00:59:19;192.25;;;47.70;;
28714;SDS011;15886;49.170;14.572;2022-12-18T01:01:47;194.02;;;51.70;;
28714;SDS011;15886;49.170;14.572;2022-12-18T01:04:19;247.38;;;54.95;;
28714;SDS011;15886;49.170;14.572;2022-12-18T01:06:48;276.23;;;54.67;;
28714;SDS011;15886;49.170;14.572;2022-12-18T01:09:16;198.43;;;47.25;;
28714;SDS011;15886;49.170;14.572;2022-12-18T01:11:45;275.20;;;46.63;;
28714;SDS011;15886;49.170;14.572;2022-12-18T01:14:13;234.40;;;49.45;;
28714;SDS011;15886;49.170;14.572;2022-12-18T01:16:41;273.60;;;44.22;;
28714;SDS011;15886;49.170;14.572;2022-12-18T01:19:10;196.13;;;36.28;;
28714;SDS011;15886;49.170;14.572;2022-12-18T01:21:38;206.82;;;35.80;;
28714;SDS011;15886;49.170;14.572;2022-12-18T01:24:06;193.07;;;32.50;;
28714;SDS011;15886;49.170;14.572;2022-12-18T01:26:34;246.02;;;36.55;;
28714;SDS011;15886;49.170;14.572;2022-12-18T01:29:03;189.05;;;34.63;;
28714;SDS011;15886;49.170;14.572;2022-12-18T01:31:32;161.80;;;35.85;;
28714;SDS011;15886;49.170;14.572;2022-12-18T01:34:02;183.95;;;36.97;;
28714;SDS011;15886;49.170;14.572;2022-12-18T01:36:31;166.00;;;35.92;;
28714;SDS011;15886;49.170;14.572;2022-12-18T01:39:01;232.05;;;35.95;;
28714;SDS011;15886;49.170;14.572;2022-12-18T01:41:30;93.72;;;30.13;;
28714;SDS011;15886;49.170;14.572;2022-12-18T01:47:06;92.75;;;29.27;;
28714;SDS011;15886;49.170;14.572;2022-12-18T01:49:35;91.10;;;32.15;;
28714;SDS011;15886;49.170;14.572;2022-12-18T01:52:03;84.80;;;31.52;;
28714;SDS011;15886;49.170;14.572;2022-12-18T01:54:31;141.95;;;32.05;;
28714;SDS011;15886;49.170;14.572;2022-12-18T01:57:00;84.97;;;29.55;;
28714;SDS011;15886;49.170;14.572;2022-12-18T01:59:28;159.60;;;34.88;;
28714;SDS011;15886;49.170;14.572;2022-12-18T02:01:57;115.28;;;32.85;;
28714;SDS011;15886;49.170;14.572;2022-12-18T02:04:26;83.20;;;31.73;;
28714;SDS011;15886;49.170;14.572;2022-12-18T02:06:58;75.75;;;29.38;;
28714;SDS011;15886;49.170;14.572;2022-12-18T02:09:34;94.88;;;32.05;;
28714;SDS011;15886;49.170;14.572;2022-12-18T02:12:06;138.68;;;35.08;;
28714;SDS011;15886;49.170;14.572;2022-12-18T02:14:44;156.68;;;33.15;;
28714;SDS011;15886;49.170;14.572;2022-12-18T02:17:21;94.13;;;33.50;;
28714;SDS011;15886;49.170;14.572;2022-12-18T02:25:26;124.15;;;34.65;;
28714;SDS011;15886;49.170;14.572;2022-12-18T02:27:56;125.30;;;38.33;;
28714;SDS011;15886;49.170;14.572;2022-12-18T02:30:29;169.00;;;41.05;;
28714;SDS011;15886;49.170;14.572;2022-12-18T02:32:59;178.27;;;43.35;;
28714;SDS011;15886;49.170;14.572;2022-12-18T02:35:30;148.30;;;43.35;;
28714;SDS011;15886;49.170;14.572;2022-12-18T02:38:00;142.15;;;37.58;;
28714;SDS011;15886;49.170;14.572;2022-12-18T02:40:34;144.13;;;42.40;;
28714;SDS011;15886;49.170;14.572;2022-12-18T02:43:06;146.43;;;36.13;;
28714;SDS011;15886;49.170;14.572;2022-12-18T02:45:35;186.60;;;39.22;;
28714;SDS011;15886;49.170;14.572;2022-12-18T02:48:03;195.52;;;43.95;;
28714;SDS011;15886;49.170;14.572;2022-12-18T02:50:36;178.48;;;44.00;;
28714;SDS011;15886;49.170;14.572;2022-12-18T02:55:56;186.20;;;45.58;;
28714;SDS011;15886;49.170;14.572;2022-12-18T02:58:29;149.57;;;38.47;;
28714;SDS011;15886;49.170;14.572;2022-12-18T03:01:12;135.82;;;36.83;;
28714;SDS011;15886;49.170;14.572;2022-12-18T03:03:50;140.00;;;35.40;;
28714;SDS011;15886;49.170;14.572;2022-12-18T03:06:25;166.55;;;32.78;;
28714;SDS011;15886;49.170;14.572;2022-12-18T03:09:11;183.95;;;30.50;;
28714;SDS011;15886;49.170;14.572;2022-12-18T03:11:42;230.05;;;32.63;;
28714;SDS011;15886;49.170;14.572;2022-12-18T03:14:30;115.20;;;30.77;;
28714;SDS011;15886;49.170;14.572;2022-12-18T03:17:01;190.95;;;34.97;;
28714;SDS011;15886;49.170;14.572;2022-12-18T03:19:32;227.88;;;35.80;;
28714;SDS011;15886;49.170;14.572;2022-12-18T03:22:02;236.13;;;36.50;;
28714;SDS011;15886;49.170;14.572;2022-12-18T03:24:41;164.35;;;32.65;;
28714;SDS011;15886;49.170;14.572;2022-12-18T03:27:11;131.20;;;35.47;;
28714;SDS011;15886;49.170;14.572;2022-12-18T03:29:45;130.60;;;34.25;;
28714;SDS011;15886;49.170;14.572;2022-12-18T03:32:27;111.20;;;34.13;;
28714;SDS011;15886;49.170;14.572;2022-12-18T03:34:59;103.82;;;35.88;;
28714;SDS011;15886;49.170;14.572;2022-12-18T03:37:32;144.25;;;39.70;;
28714;SDS011;15886;49.170;14.572;2022-12-18T03:40:00;123.78;;;36.25;;
28714;SDS011;15886;49.170;14.572;2022-12-18T03:55:42;115.00;;;33.85;;
28714;SDS011;15886;49.170;14.572;2022-12-18T03:58:11;118.07;;;35.17;;
28714;SDS011;15886;49.170;14.572;2022-12-18T04:00:52;80.95;;;30.85;;
28714;SDS011;15886;49.170;14.572;2022-12-18T04:03:25;81.70;;;29.85;;
28714;SDS011;15886;49.170;14.572;2022-12-18T04:05:56;80.80;;;31.50;;
28714;SDS011;15886;49.170;14.572;2022-12-18T04:08:26;106.90;;;33.67;;
28714;SDS011;15886;49.170;14.572;2022-12-18T04:11:01;102.13;;;33.00;;
28714;SDS011;15886;49.170;14.572;2022-12-18T04:13:36;105.75;;;33.30;;
28714;SDS011;15886;49.170;14.572;2022-12-18T04:16:09;81.78;;;31.02;;
28714;SDS011;15886;49.170;14.572;2022-12-18T04:18:40;82.60;;;29.48;;
28714;SDS011;15886;49.170;14.572;2022-12-18T04:21:09;90.20;;;31.48;;
28714;SDS011;15886;49.170;14.572;2022-12-18T04:23:38;81.88;;;28.92;;
28714;SDS011;15886;49.170;14.572;2022-12-18T04:26:06;120.40;;;40.75;;
28714;SDS011;15886;49.170;14.572;2022-12-18T04:28:44;110.00;;;39.92;;
28714;SDS011;15886;49.170;14.572;2022-12-18T04:31:12;117.15;;;38.17;;
28714;SDS011;15886;49.170;14.572;2022-12-18T04:33:41;98.32;;;34.90;;
28714;SDS011;15886;49.170;14.572;2022-12-18T04:36:09;97.75;;;33.95;;
28714;SDS011;15886;49.170;14.572;2022-12-18T04:38:40;105.72;;;37.22;;
28714;SDS011;15886;49.170;14.572;2022-12-18T04:41:12;108.57;;;36.90;;
28714;SDS011;15886;49.170;14.572;2022-12-18T04:43:42;100.95;;;37.58;;
28714;SDS011;15886;49.170;14.572;2022-12-18T04:46:10;102.30;;;34.78;;
28714;SDS011;15886;49.170;14.572;2022-12-18T04:48:38;107.80;;;35.20;;
28714;SDS011;15886;49.170;14.572;2022-12-18T04:51:07;82.22;;;30.70;;
28714;SDS011;15886;49.170;14.572;2022-12-18T04:53:35;95.75;;;29.92;;
28714;SDS011;15886;49.170;14.572;2022-12-18T04:56:08;92.32;;;31.67;;
28714;SDS011;15886;49.170;14.572;2022-12-18T04:58:37;78.20;;;31.30;;
28714;SDS011;15886;49.170;14.572;2022-12-18T05:01:05;88.32;;;30.38;;
28714;SDS011;15886;49.170;14.572;2022-12-18T05:03:34;113.70;;;32.95;;
28714;SDS011;15886;49.170;14.572;2022-12-18T05:06:04;86.45;;;31.52;;
28714;SDS011;15886;49.170;14.572;2022-12-18T05:08:32;139.57;;;29.05;;
28714;SDS011;15886;49.170;14.572;2022-12-18T05:11:02;175.90;;;31.98;;
28714;SDS011;15886;49.170;14.572;2022-12-18T05:13:30;176.10;;;31.63;;
28714;SDS011;15886;49.170;14.572;2022-12-18T05:15:58;126.28;;;31.40;;
28714;SDS011;15886;49.170;14.572;2022-12-18T05:18:27;174.38;;;47.47;;
28714;SDS011;15886;49.170;14.572;2022-12-18T05:20:55;115.43;;;39.00;;
28714;SDS011;15886;49.170;14.572;2022-12-18T05:23:24;115.35;;;36.47;;
28714;SDS011;15886;49.170;14.572;2022-12-18T05:25:56;81.15;;;31.67;;
28714;SDS011;15886;49.170;14.572;2022-12-18T05:28:26;87.78;;;29.55;;
28714;SDS011;15886;49.170;14.572;2022-12-18T05:30:55;89.95;;;29.55;;
28714;SDS011;15886;49.170;14.572;2022-12-18T05:33:25;84.25;;;27.55;;
28714;SDS011;15886;49.170;14.572;2022-12-18T05:35:55;89.00;;;27.80;;
28714;SDS011;15886;49.170;14.572;2022-12-18T05:38:24;83.00;;;27.02;;
28714;SDS011;15886;49.170;14.572;2022-12-18T05:40:53;103.13;;;27.48;;
28714;SDS011;15886;49.170;14.572;2022-12-18T05:43:21;154.88;;;29.60;;
28714;SDS011;15886;49.170;14.572;2022-12-18T05:45:52;125.97;;;26.90;;
28714;SDS011;15886;49.170;14.572;2022-12-18T05:48:20;104.13;;;28.35;;
28714;SDS011;15886;49.170;14.572;2022-12-18T05:50:49;139.50;;;30.60;;
28714;SDS011;15886;49.170;14.572;2022-12-18T05:53:18;142.48;;;31.63;;
28714;SDS011;15886;49.170;14.572;2022-12-18T05:55:47;134.68;;;31.13;;
28714;SDS011;15886;49.170;14.572;2022-12-18T05:58:15;227.75;;;32.55;;
28714;SDS011;15886;49.170;14.572;2022-12-18T06:00:44;160.02;;;32.63;;
28714;SDS011;15886;49.170;14.572;2022-12-18T06:03:24;127.45;;;31.05;;
28714;SDS011;15886;49.170;14.572;2022-12-18T06:06:18;138.00;;;33.00;;
28714;SDS011;15886;49.170;14.572;2022-12-18T06:09:11;151.57;;;30.67;;
28714;SDS011;15886;49.170;14.572;2022-12-18T06:11:39;139.82;;;32.30;;
28714;SDS011;15886;49.170;14.572;2022-12-18T06:14:08;114.47;;;27.75;;
28714;SDS011;15886;49.170;14.572;2022-12-18T06:16:37;120.38;;;30.00;;
28714;SDS011;15886;49.170;14.572;2022-12-18T06:19:06;192.75;;;30.02;;
28714;SDS011;15886;49.170;14.572;2022-12-18T06:21:34;120.80;;;28.50;;
28714;SDS011;15886;49.170;14.572;2022-12-18T06:24:02;130.15;;;33.92;;
28714;SDS011;15886;49.170;14.572;2022-12-18T06:26:31;78.55;;;28.60;;
28714;SDS011;15886;49.170;14.572;2022-12-18T06:28:59;82.70;;;29.60;;
28714;SDS011;15886;49.170;14.572;2022-12-18T06:31:27;65.47;;;27.02;;
28714;SDS011;15886;49.170;14.572;2022-12-18T06:33:55;71.65;;;27.67;;
28714;SDS011;15886;49.170;14.572;2022-12-18T06:36:23;79.38;;;29.55;;
28714;SDS011;15886;49.170;14.572;2022-12-18T06:38:51;80.70;;;28.42;;
28714;SDS011;15886;49.170;14.572;2022-12-18T06:41:20;78.40;;;27.75;;
28714;SDS011;15886;49.170;14.572;2022-12-18T06:43:49;77.78;;;29.88;;
28714;SDS011;15886;49.170;14.572;2022-12-18T06:46:18;72.03;;;27.35;;
28714;SDS011;15886;49.170;14.572;2022-12-18T06:48:47;62.88;;;25.98;;
28714;SDS011;15886;49.170;14.572;2022-12-18T06:51:17;65.90;;;26.15;;
28714;SDS011;15886;49.170;14.572;2022-12-18T06:53:46;57.30;;;24.33;;
28714;SDS011;15886;49.170;14.572;2022-12-18T06:56:14;57.65;;;23.33;;
28714;SDS011;15886;49.170;14.572;2022-12-18T06:58:42;80.65;;;22.30;;
28714;SDS011;15886;49.170;14.572;2022-12-18T07:01:10;62.78;;;20.48;;
28714;SDS011;15886;49.170;14.572;2022-12-18T07:03:39;122.88;;;21.40;;
28714;SDS011;15886;49.170;14.572;2022-12-18T07:06:15;69.28;;;18.08;;
28714;SDS011;15886;49.170;14.572;2022-12-18T07:08:44;55.53;;;18.60;;
28714;SDS011;15886;49.170;14.572;2022-12-18T07:11:13;57.13;;;18.92;;
28714;SDS011;15886;49.170;14.572;2022-12-18T07:13:41;47.80;;;18.35;;
28714;SDS011;15886;49.170;14.572;2022-12-18T07:16:10;92.90;;;20.45;;
28714;SDS011;15886;49.170;14.572;2022-12-18T07:18:43;61.30;;;20.95;;
28714;SDS011;15886;49.170;14.572;2022-12-18T07:21:12;44.63;;;18.10;;
28714;SDS011;15886;49.170;14.572;2022-12-18T07:23:42;41.40;;;15.82;;
28714;SDS011;15886;49.170;14.572;2022-12-18T07:26:14;40.10;;;15.45;;
28714;SDS011;15886;49.170;14.572;2022-12-18T07:28:42;34.35;;;15.65;;
28714;SDS011;15886;49.170;14.572;2022-12-18T07:31:11;47.20;;;15.98;;
28714;SDS011;15886;49.170;14.572;2022-12-18T07:33:40;54.20;;;16.25;;
28714;SDS011;15886;49.170;14.572;2022-12-18T07:36:09;86.50;;;17.95;;
28714;SDS011;15886;49.170;14.572;2022-12-18T07:38:38;113.38;;;24.55;;
28714;SDS011;15886;49.170;14.572;2022-12-18T07:41:10;108.47;;;23.75;;
28714;SDS011;15886;49.170;14.572;2022-12-18T07:43:38;127.30;;;23.70;;
28714;SDS011;15886;49.170;14.572;2022-12-18T07:46:07;152.32;;;22.45;;
28714;SDS011;15886;49.170;14.572;2022-12-18T07:48:36;115.03;;;21.10;;
28714;SDS011;15886;49.170;14.572;2022-12-18T07:51:05;114.68;;;24.70;;
28714;SDS011;15886;49.170;14.572;2022-12-18T07:53:37;166.68;;;29.90;;
28714;SDS011;15886;49.170;14.572;2022-12-18T07:56:06;129.90;;;23.77;;
28714;SDS011;15886;49.170;14.572;2022-12-18T07:58:55;83.30;;;20.10;;
28714;SDS011;15886;49.170;14.572;2022-12-18T08:01:24;70.03;;;17.15;;
28714;SDS011;15886;49.170;14.572;2022-12-18T08:03:52;42.40;;;16.65;;
28714;SDS011;15886;49.170;14.572;2022-12-18T08:06:20;36.70;;;15.68;;
28714;SDS011;15886;49.170;14.572;2022-12-18T08:08:50;32.13;;;15.27;;
28714;SDS011;15886;49.170;14.572;2022-12-18T08:11:18;47.22;;;17.95;;
28714;SDS011;15886;49.170;14.572;2022-12-18T08:13:48;48.92;;;18.08;;
28714;SDS011;15886;49.170;14.572;2022-12-18T08:16:16;42.67;;;18.13;;
28714;SDS011;15886;49.170;14.572;2022-12-18T08:18:44;48.00;;;20.92;;
28714;SDS011;15886;49.170;14.572;2022-12-18T08:21:14;88.97;;;37.05;;
28714;SDS011;15886;49.170;14.572;2022-12-18T08:23:43;61.83;;;25.67;;
28714;SDS011;15886;49.170;14.572;2022-12-18T08:26:12;42.08;;;20.17;;
28714;SDS011;15886;49.170;14.572;2022-12-18T08:28:41;56.38;;;23.20;;
28714;SDS011;15886;49.170;14.572;2022-12-18T08:31:09;58.63;;;25.85;;
28714;SDS011;15886;49.170;14.572;2022-12-18T08:33:38;80.13;;;37.45;;
28714;SDS011;15886;49.170;14.572;2022-12-18T08:36:07;120.82;;;66.63;;
28714;SDS011;15886;49.170;14.572;2022-12-18T08:38:40;60.30;;;30.88;;
28714;SDS011;15886;49.170;14.572;2022-12-18T08:41:10;61.42;;;27.75;;
28714;SDS011;15886;49.170;14.572;2022-12-18T08:43:40;62.33;;;26.55;;
28714;SDS011;15886;49.170;14.572;2022-12-18T08:46:30;62.33;;;24.75;;
28714;SDS011;15886;49.170;14.572;2022-12-18T08:48:59;69.43;;;28.23;;
28714;SDS011;15886;49.170;14.572;2022-12-18T08:51:28;68.93;;;27.45;;
28714;SDS011;15886;49.170;14.572;2022-12-18T08:59:44;72.82;;;32.35;;
28714;SDS011;15886;49.170;14.572;2022-12-18T09:02:33;77.57;;;32.22;;
28714;SDS011;15886;49.170;14.572;2022-12-18T09:05:02;87.18;;;40.22;;
28714;SDS011;15886;49.170;14.572;2022-12-18T09:07:30;77.30;;;38.85;;
28714;SDS011;15886;49.170;14.572;2022-12-18T09:10:01;91.18;;;47.03;;
28714;SDS011;15886;49.170;14.572;2022-12-18T09:15:29;165.52;;;75.95;;
28714;SDS011;15886;49.170;14.572;2022-12-18T09:17:57;106.25;;;50.72;;
28714;SDS011;15886;49.170;14.572;2022-12-18T09:20:26;43.10;;;23.02;;
28714;SDS011;15886;49.170;14.572;2022-12-18T09:22:55;42.95;;;23.23;;
28714;SDS011;15886;49.170;14.572;2022-12-18T09:25:23;78.15;;;43.20;;
28714;SDS011;15886;49.170;14.572;2022-12-18T09:27:52;122.10;;;58.60;;
28714;SDS011;15886;49.170;14.572;2022-12-18T09:30:20;117.10;;;61.25;;
28714;SDS011;15886;49.170;14.572;2022-12-18T09:32:48;235.13;;;102.68;;
28714;SDS011;15886;49.170;14.572;2022-12-18T09:35:18;223.15;;;97.30;;
28714;SDS011;15886;49.170;14.572;2022-12-18T09:37:46;147.07;;;68.35;;
28714;SDS011;15886;49.170;14.572;2022-12-18T09:40:19;127.70;;;61.08;;
28714;SDS011;15886;49.170;14.572;2022-12-18T09:42:51;86.20;;;46.25;;
28714;SDS011;15886;49.170;14.572;2022-12-18T09:45:20;84.75;;;42.35;;
28714;SDS011;15886;49.170;14.572;2022-12-18T09:47:48;57.90;;;32.83;;
28714;SDS011;15886;49.170;14.572;2022-12-18T09:50:29;84.68;;;46.28;;
28714;SDS011;15886;49.170;14.572;2022-12-18T09:52:59;156.23;;;78.28;;
28714;SDS011;15886;49.170;14.572;2022-12-18T09:58:07;179.73;;;86.47;;
28714;SDS011;15886;49.170;14.572;2022-12-18T10:00:40;119.85;;;64.13;;
28714;SDS011;15886;49.170;14.572;2022-12-18T10:03:12;60.75;;;36.63;;
28714;SDS011;15886;49.170;14.572;2022-12-18T10:05:43;115.82;;;53.25;;
28714;SDS011;15886;49.170;14.572;2022-12-18T10:11:00;117.78;;;57.88;;
28714;SDS011;15886;49.170;14.572;2022-12-18T10:13:31;86.72;;;47.03;;
28714;SDS011;15886;49.170;14.572;2022-12-18T10:21:18;94.50;;;48.50;;
28714;SDS011;15886;49.170;14.572;2022-12-18T10:23:54;58.63;;;30.20;;
28714;SDS011;15886;49.170;14.572;2022-12-18T10:26:25;47.35;;;25.85;;
28714;SDS011;15886;49.170;14.572;2022-12-18T10:28:54;56.17;;;28.80;;
28714;SDS011;15886;49.170;14.572;2022-12-18T10:31:26;74.82;;;39.63;;
28714;SDS011;15886;49.170;14.572;2022-12-18T10:33:55;57.45;;;30.02;;
28714;SDS011;15886;49.170;14.572;2022-12-18T10:36:23;77.13;;;36.80;;
28714;SDS011;15886;49.170;14.572;2022-12-18T10:39:07;75.38;;;38.38;;
28714;SDS011;15886;49.170;14.572;2022-12-18T10:42:09;74.85;;;36.58;;
28714;SDS011;15886;49.170;14.572;2022-12-18T10:45:01;58.67;;;31.45;;
28714;SDS011;15886;49.170;14.572;2022-12-18T10:47:49;55.40;;;27.17;;
28714;SDS011;15886;49.170;14.572;2022-12-18T10:50:36;57.65;;;24.00;;
28714;SDS011;15886;49.170;14.572;2022-12-18T10:53:36;101.18;;;38.58;;
28714;SDS011;15886;49.170;14.572;2022-12-18T10:56:14;57.45;;;27.38;;
28714;SDS011;15886;49.170;14.572;2022-12-18T10:59:00;49.80;;;22.50;;
28714;SDS011;15886;49.170;14.572;2022-12-18T11:04:19;46.03;;;22.38;;
28714;SDS011;15886;49.170;14.572;2022-12-18T11:07:03;57.33;;;27.23;;
28714;SDS011;15886;49.170;14.572;2022-12-18T11:09:33;54.53;;;26.05;;
28714;SDS011;15886;49.170;14.572;2022-12-18T11:12:14;48.00;;;22.83;;
28714;SDS011;15886;49.170;14.572;2022-12-18T11:17:19;50.40;;;26.77;;
28714;SDS011;15886;49.170;14.572;2022-12-18T11:19:54;49.05;;;23.48;;
28714;SDS011;15886;49.170;14.572;2022-12-18T11:22:28;42.25;;;22.50;;
28714;SDS011;15886;49.170;14.572;2022-12-18T11:25:00;49.78;;;23.48;;
28714;SDS011;15886;49.170;14.572;2022-12-18T11:27:50;48.20;;;22.55;;
28714;SDS011;15886;49.170;14.572;2022-12-18T11:32:49;41.65;;;20.92;;
28714;SDS011;15886;49.170;14.572;2022-12-18T11:35:35;44.40;;;22.20;;
28714;SDS011;15886;49.170;14.572;2022-12-18T11:38:26;47.95;;;23.35;;
28714;SDS011;15886;49.170;14.572;2022-12-18T11:45:59;45.72;;;24.15;;
28714;SDS011;15886;49.170;14.572;2022-12-18T11:50:58;50.13;;;26.95;;
28714;SDS011;15886;49.170;14.572;2022-12-18T11:53:27;52.13;;;25.20;;
28714;SDS011;15886;49.170;14.572;2022-12-18T11:55:59;49.38;;;24.95;;
28714;SDS011;15886;49.170;14.572;2022-12-18T11:58:47;43.08;;;22.33;;
28714;SDS011;15886;49.170;14.572;2022-12-18T12:03:55;50.88;;;25.23;;
28714;SDS011;15886;49.170;14.572;2022-12-18T12:06:35;42.50;;;20.85;;
28714;SDS011;15886;49.170;14.572;2022-12-18T12:17:13;51.40;;;26.08;;
28714;SDS011;15886;49.170;14.572;2022-12-18T12:19:56;45.80;;;25.67;;
28714;SDS011;15886;49.170;14.572;2022-12-18T12:22:50;47.05;;;23.88;;
28714;SDS011;15886;49.170;14.572;2022-12-18T12:30:46;95.53;;;38.92;;
28714;SDS011;15886;49.170;14.572;2022-12-18T12:38:24;82.72;;;39.75;;
28714;SDS011;15886;49.170;14.572;2022-12-18T12:41:00;65.03;;;33.60;;
28714;SDS011;15886;49.170;14.572;2022-12-18T12:51:26;73.43;;;35.05;;
28714;SDS011;15886;49.170;14.572;2022-12-18T12:53:56;127.38;;;56.67;;
28714;SDS011;15886;49.170;14.572;2022-12-18T12:56:26;99.38;;;47.30;;
28714;SDS011;15886;49.170;14.572;2022-12-18T13:04:23;95.00;;;46.00;;
28714;SDS011;15886;49.170;14.572;2022-12-18T13:09:32;75.97;;;39.90;;
28714;SDS011;15886;49.170;14.572;2022-12-18T13:12:08;92.28;;;45.15;;
28714;SDS011;15886;49.170;14.572;2022-12-18T13:15:20;94.88;;;47.60;;
28714;SDS011;15886;49.170;14.572;2022-12-18T13:17:47;99.65;;;47.28;;
28714;SDS011;15886;49.170;14.572;2022-12-18T13:20:16;100.03;;;51.88;;
28714;SDS011;15886;49.170;14.572;2022-12-18T13:22:45;79.47;;;38.72;;
28714;SDS011;15886;49.170;14.572;2022-12-18T13:25:31;75.15;;;38.67;;
28714;SDS011;15886;49.170;14.572;2022-12-18T13:28:09;73.18;;;34.80;;
28714;SDS011;15886;49.170;14.572;2022-12-18T13:30:45;76.85;;;35.88;;
28714;SDS011;15886;49.170;14.572;2022-12-18T13:38:21;97.38;;;50.08;;
28714;SDS011;15886;49.170;14.572;2022-12-18T13:48:34;105.80;;;56.20;;
28714;SDS011;15886;49.170;14.572;2022-12-18T13:51:09;81.25;;;39.17;;
28714;SDS011;15886;49.170;14.572;2022-12-18T13:54:00;100.25;;;46.70;;
28714;SDS011;15886;49.170;14.572;2022-12-18T13:56:29;94.38;;;45.72;;
28714;SDS011;15886;49.170;14.572;2022-12-18T14:02:28;90.18;;;45.53;;
28714;SDS011;15886;49.170;14.572;2022-12-18T14:04:36;90.47;;;44.25;;
28714;SDS011;15886;49.170;14.572;2022-12-18T14:07:10;110.72;;;47.17;;
28714;SDS011;15886;49.170;14.572;2022-12-18T14:09:47;139.70;;;61.03;;
28714;SDS011;15886;49.170;14.572;2022-12-18T14:12:19;149.13;;;61.05;;
28714;SDS011;15886;49.170;14.572;2022-12-18T14:20:22;126.95;;;59.33;;
28714;SDS011;15886;49.170;14.572;2022-12-18T14:22:52;153.90;;;68.68;;
28714;SDS011;15886;49.170;14.572;2022-12-18T14:25:21;143.35;;;67.00;;
28714;SDS011;15886;49.170;14.572;2022-12-18T14:27:59;128.93;;;64.32;;
28714;SDS011;15886;49.170;14.572;2022-12-18T14:35:29;96.90;;;44.38;;
28714;SDS011;15886;49.170;14.572;2022-12-18T14:38:10;83.03;;;38.97;;
28714;SDS011;15886;49.170;14.572;2022-12-18T14:40:39;82.90;;;35.65;;
28714;SDS011;15886;49.170;14.572;2022-12-18T14:43:09;52.67;;;23.80;;
28714;SDS011;15886;49.170;14.572;2022-12-18T14:45:42;54.80;;;26.10;;
28714;SDS011;15886;49.170;14.572;2022-12-18T14:48:15;46.88;;;21.65;;
28714;SDS011;15886;49.170;14.572;2022-12-18T14:50:44;55.05;;;24.83;;
28714;SDS011;15886;49.170;14.572;2022-12-18T14:53:23;51.42;;;25.50;;
28714;SDS011;15886;49.170;14.572;2022-12-18T14:55:55;55.33;;;26.45;;
28714;SDS011;15886;49.170;14.572;2022-12-18T14:58:24;64.63;;;31.38;;
28714;SDS011;15886;49.170;14.572;2022-12-18T15:00:52;56.85;;;27.08;;
28714;SDS011;15886;49.170;14.572;2022-12-18T15:03:21;50.63;;;24.15;;
28714;SDS011;15886;49.170;14.572;2022-12-18T15:05:49;58.20;;;27.08;;
28714;SDS011;15886;49.170;14.572;2022-12-18T15:08:31;55.38;;;22.88;;
28714;SDS011;15886;49.170;14.572;2022-12-18T15:11:02;53.60;;;25.55;;
28714;SDS011;15886;49.170;14.572;2022-12-18T15:13:33;57.63;;;27.98;;
28714;SDS011;15886;49.170;14.572;2022-12-18T15:16:02;63.05;;;31.95;;
28714;SDS011;15886;49.170;14.572;2022-12-18T15:18:32;90.25;;;42.75;;
28714;SDS011;15886;49.170;14.572;2022-12-18T15:21:07;61.85;;;27.13;;
28714;SDS011;15886;49.170;14.572;2022-12-18T15:23:48;55.35;;;27.48;;
28714;SDS011;15886;49.170;14.572;2022-12-18T15:26:18;54.75;;;25.58;;
28714;SDS011;15886;49.170;14.572;2022-12-18T15:31:22;62.10;;;29.02;;
28714;SDS011;15886;49.170;14.572;2022-12-18T15:36:20;80.28;;;38.75;;
28714;SDS011;15886;49.170;14.572;2022-12-18T15:38:49;80.40;;;40.63;;
28714;SDS011;15886;49.170;14.572;2022-12-18T15:41:18;77.50;;;37.67;;
28714;SDS011;15886;49.170;14.572;2022-12-18T15:43:51;43.08;;;20.70;;
28714;SDS011;15886;49.170;14.572;2022-12-18T15:46:20;44.72;;;19.58;;
28714;SDS011;15886;49.170;14.572;2022-12-18T15:48:51;52.45;;;26.10;;
28714;SDS011;15886;49.170;14.572;2022-12-18T15:53:51;58.75;;;30.58;;
28714;SDS011;15886;49.170;14.572;2022-12-18T15:56:20;67.63;;;30.98;;
28714;SDS011;15886;49.170;14.572;2022-12-18T15:59:16;61.38;;;27.23;;
28714;SDS011;15886;49.170;14.572;2022-12-18T16:01:46;64.32;;;28.77;;
28714;SDS011;15886;49.170;14.572;2022-12-18T16:04:20;72.57;;;33.22;;
28714;SDS011;15886;49.170;14.572;2022-12-18T16:06:48;70.05;;;30.98;;
28714;SDS011;15886;49.170;14.572;2022-12-18T16:09:32;69.78;;;26.98;;
28714;SDS011;15886;49.170;14.572;2022-12-18T16:12:01;62.85;;;31.88;;
28714;SDS011;15886;49.170;14.572;2022-12-18T16:14:30;59.33;;;26.40;;
28714;SDS011;15886;49.170;14.572;2022-12-18T16:17:02;51.70;;;24.65;;
28714;SDS011;15886;49.170;14.572;2022-12-18T16:19:50;60.72;;;28.58;;
28714;SDS011;15886;49.170;14.572;2022-12-18T16:22:20;67.47;;;32.80;;
28714;SDS011;15886;49.170;14.572;2022-12-18T16:24:49;63.60;;;30.33;;
28714;SDS011;15886;49.170;14.572;2022-12-18T16:27:18;52.85;;;24.65;;
28714;SDS011;15886;49.170;14.572;2022-12-18T16:29:47;91.13;;;38.22;;
28714;SDS011;15886;49.170;14.572;2022-12-18T16:32:16;89.70;;;34.38;;
28714;SDS011;15886;49.170;14.572;2022-12-18T16:34:45;272.95;;;71.30;;
28714;SDS011;15886;49.170;14.572;2022-12-18T16:37:15;219.82;;;59.92;;
28714;SDS011;15886;49.170;14.572;2022-12-18T16:39:46;90.18;;;37.75;;
28714;SDS011;15886;49.170;14.572;2022-12-18T16:42:18;81.13;;;37.67;;